Time;durP1;ratioP1;P1;durP2;ratioP2;P2;SDS_P1;SDS_P2;PMS_P1;PMS_P2;Temp;Humidity;BMP_temperature;BMP_pressure;BME280_temperature;BME280_humidity;BME280_pressure;Samples;Min_cycle;Max_cycle;Signal;HPM_P1;HPM_P2
2021/11/09 00:02:17;;;;;;;13.43;9.20;;;9.40;85.20;;;;;;4874837;29;20465;-41
2021/11/09 00:04:49;;;;;;;24.13;12.20;;;9.40;85.30;;;;;;4875168;29;20810;-41
2021/11/09 00:09:57;;;;;;;23.03;11.57;;;9.40;85.30;;;;;;4889871;29;20560;-41
2021/11/09 00:12:30;;;;;;;18.03;10.07;;;9.40;85.30;;;;;;4871944;29;20604;-41
2021/11/09 00:14:58;;;;;;;12.13;9.47;;;9.50;84.80;;;;;;4890487;29;20461;-41
2021/11/09 00:17:26;;;;;;;13.10;8.23;;;9.40;85.00;;;;;;4889095;29;20548;-40
2021/11/09 00:19:53;;;;;;;12.17;7.50;;;9.50;84.90;;;;;;4891709;29;20561;-41
2021/11/09 00:22:22;;;;;;;13.70;8.90;;;9.50;84.90;;;;;;4890800;29;20521;-41
2021/11/09 00:24:50;;;;;;;13.93;8.63;;;9.50;84.80;;;;;;4890440;29;21957;-41
2021/11/09 00:27:17;;;;;;;20.10;9.47;;;9.40;85.00;;;;;;4874706;29;20552;-41
2021/11/09 00:29:45;;;;;;;13.57;8.00;;;9.40;85.30;;;;;;4888601;29;20560;-41
2021/11/09 00:32:12;;;;;;;14.67;8.57;;;9.40;85.40;;;;;;4890689;29;20553;-41
2021/11/09 00:34:38;;;;;;;16.10;8.17;;;9.30;85.50;;;;;;4890483;29;20470;-41
2021/11/09 00:37:06;;;;;;;13.23;8.53;;;9.40;85.60;;;;;;4874701;29;21084;-41
2021/11/09 00:39:34;;;;;;;21.73;8.83;;;9.40;85.30;;;;;;4889100;29;20564;-41
2021/11/09 00:42:01;;;;;;;18.30;8.40;;;9.40;85.40;;;;;;4874496;29;20469;-41
2021/11/09 00:44:28;;;;;;;13.20;8.13;;;9.30;85.60;;;;;;4892522;29;20458;-41
2021/11/09 00:46:56;;;;;;;13.80;8.50;;;9.40;85.50;;;;;;4891993;29;20557;-41
2021/11/09 00:49:23;;;;;;;17.87;9.20;;;9.40;85.40;;;;;;4892534;29;20588;-41
2021/11/09 00:51:50;;;;;;;9.50;8.30;;;9.40;85.30;;;;;;4859966;29;20533;-41
2021/11/09 00:54:19;;;;;;;11.30;8.20;;;9.40;85.50;;;;;;4887778;29;20458;-41
2021/11/09 00:56:46;;;;;;;13.00;8.00;;;9.40;85.60;;;;;;4890637;29;20474;-41
2021/11/09 00:59:16;;;;;;;10.27;7.60;;;9.30;85.70;;;;;;4891253;29;20526;-41
2021/11/09 01:01:43;;;;;;;16.73;7.53;;;9.30;85.90;;;;;;4890617;29;20466;-41
2021/11/09 01:04:10;;;;;;;14.53;8.00;;;9.30;85.90;;;;;;4889855;29;20488;-41
2021/11/09 01:06:37;;;;;;;15.10;8.40;;;9.30;85.90;;;;;;4889580;29;20993;-41
2021/11/09 01:09:06;;;;;;;16.03;8.33;;;9.40;85.40;;;;;;4890241;29;20888;-41
2021/11/09 01:11:34;;;;;;;12.07;6.97;;;9.40;85.30;;;;;;4888399;29;20493;-41
2021/11/09 01:14:02;;;;;;;13.53;7.73;;;9.40;85.20;;;;;;4890995;29;20505;-41
2021/11/09 01:16:29;;;;;;;14.27;7.90;;;9.40;85.40;;;;;;4876191;29;20717;-41
2021/11/09 01:18:58;;;;;;;10.37;6.67;;;9.30;85.50;;;;;;4889088;29;20688;-41
2021/11/09 01:21:25;;;;;;;13.80;6.80;;;9.30;85.60;;;;;;4890185;29;20549;-41
2021/11/09 01:23:54;;;;;;;11.63;7.30;;;9.30;85.90;;;;;;4889421;29;21172;-41
2021/11/09 01:26:22;;;;;;;17.60;7.47;;;9.30;85.60;;;;;;4888890;29;20904;-41
2021/11/09 01:28:53;;;;;;;13.13;7.10;;;9.30;85.70;;;;;;4891697;29;20490;-41
2021/11/09 01:31:21;;;;;;;13.67;7.57;;;9.30;85.70;;;;;;4889527;29;20512;-41
2021/11/09 01:33:48;;;;;;;10.60;6.10;;;9.30;85.40;;;;;;4876747;29;20980;-41
2021/11/09 01:36:17;;;;;;;14.30;8.07;;;9.30;85.30;;;;;;4890283;29;20486;-41
2021/11/09 01:38:44;;;;;;;13.27;6.67;;;9.30;85.50;;;;;;4873758;29;21128;-41
2021/11/09 01:41:12;;;;;;;8.70;6.50;;;9.30;85.50;;;;;;4888108;29;20974;-41
2021/11/09 01:43:41;;;;;;;11.60;7.00;;;9.30;85.60;;;;;;4890022;29;20501;-41
2021/11/09 01:46:09;;;;;;;12.80;6.80;;;9.30;85.60;;;;;;4889320;29;20473;-41
2021/11/09 01:48:36;;;;;;;9.80;7.60;;;9.30;85.90;;;;;;4890338;29;21027;-41
2021/11/09 01:51:06;;;;;;;11.00;6.70;;;9.30;85.90;;;;;;4874371;29;20556;-41
2021/11/09 01:53:35;;;;;;;14.80;7.70;;;9.30;85.90;;;;;;4889496;29;20502;-41
2021/11/09 01:56:06;;;;;;;15.67;7.90;;;9.40;85.20;;;;;;4890554;29;21020;-41
2021/11/09 01:58:33;;;;;;;14.27;7.30;;;9.30;85.30;;;;;;4889692;29;20473;-41
2021/11/09 02:01:13;;;;;;;8.90;6.27;;;9.30;85.50;;;;;;4884840;29;20473;-41
2021/11/09 02:03:43;;;;;;;13.83;8.33;;;9.30;85.50;;;;;;4874860;29;20469;-41
2021/11/09 02:06:12;;;;;;;10.10;6.53;;;9.20;85.50;;;;;;4890542;29;20485;-42
2021/11/09 02:08:41;;;;;;;16.10;6.30;;;9.10;85.50;;;;;;4886475;29;20553;-42
2021/11/09 02:11:09;;;;;;;18.47;7.63;;;9.10;85.40;;;;;;4889101;29;20489;-42
2021/11/09 02:13:37;;;;;;;13.80;7.10;;;9.10;85.00;;;;;;4868737;29;20549;-43
2021/11/09 02:16:04;;;;;;;13.20;7.10;;;9.10;85.20;;;;;;4876621;29;20541;-42
2021/11/09 02:18:32;;;;;;;9.43;7.13;;;9.00;85.10;;;;;;4898691;29;20490;-42
2021/11/09 02:21:11;;;;;;;7.90;6.87;;;9.00;85.10;;;;;;4897915;29;21012;-41
2021/11/09 02:23:42;;;;;;;11.57;7.50;;;8.90;85.10;;;;;;4873661;29;20987;-40
2021/11/09 02:26:10;;;;;;;14.90;8.03;;;8.90;84.90;;;;;;4887826;29;21025;-40
2021/11/09 02:28:38;;;;;;;16.27;7.87;;;8.80;84.90;;;;;;4890480;29;20509;-40
2021/11/09 02:31:05;;;;;;;14.83;7.50;;;8.80;85.00;;;;;;4889655;29;20489;-40
2021/11/09 02:33:34;;;;;;;8.93;7.03;;;8.80;84.80;;;;;;4888741;29;20451;-40
2021/11/09 02:36:01;;;;;;;10.27;7.10;;;8.70;84.80;;;;;;4890956;29;20473;-43
2021/11/09 02:38:27;;;;;;;14.90;8.27;;;8.70;84.70;;;;;;4886967;29;21024;-43
2021/11/09 02:40:56;;;;;;;13.57;7.43;;;8.70;84.70;;;;;;4871106;29;20537;-43
2021/11/09 02:43:23;;;;;;;10.37;7.13;;;8.60;84.50;;;;;;4872013;29;20557;-43
2021/11/09 02:46:15;;;;;;;;;;;;;;;;;;;;;
2021/11/09 02:48:24;;;;;;;10.90;7.10;;;8.60;84.80;;;;;;4886776;29;20962;-40
2021/11/09 02:51:00;;;;;;;6.17;5.60;;;8.50;84.60;;;;;;4891317;29;20552;-42
2021/11/09 02:56:05;;;;;;;10.53;7.50;;;8.40;84.70;;;;;;4902170;29;20577;-42
2021/11/09 03:01:31;;;;;;;9.70;7.37;;;8.30;84.70;;;;;;4898059;29;20473;-42
2021/11/09 03:04:12;;;;;;;11.53;7.50;;;8.30;84.60;;;;;;4897215;29;21077;-43
2021/11/09 03:06:49;;;;;;;16.90;8.27;;;8.20;84.50;;;;;;4896989;29;20461;-43
2021/11/09 03:09:23;;;;;;;11.30;6.50;;;8.20;84.40;;;;;;4893954;29;20465;-40
2021/11/09 03:11:56;;;;;;;9.00;6.83;;;8.10;84.30;;;;;;4886596;29;20897;-41
2021/11/09 03:14:24;;;;;;;10.20;5.80;;;8.10;84.40;;;;;;4872630;29;20704;-43
2021/11/09 03:16:53;;;;;;;12.73;6.00;;;8.00;84.50;;;;;;4887161;29;20936;-43
2021/11/09 03:45:06;;;;;;;10.07;6.67;;;7.50;84.80;;;;;;4903209;29;20520;-42
2021/11/09 03:47:39;;;;;;;9.63;6.40;;;7.50;84.70;;;;;;4895617;29;20480;-41
2021/11/09 03:50:12;;;;;;;13.00;5.87;;;7.50;84.60;;;;;;4893700;29;20489;-41
2021/11/09 03:52:46;;;;;;;17.23;6.97;;;7.40;84.70;;;;;;4881104;29;20476;-43
2021/11/09 03:55:22;;;;;;;7.60;5.80;;;7.40;84.70;;;;;;4902638;29;20473;-43
2021/11/09 03:58:05;;;;;;;12.43;7.00;;;7.40;84.80;;;;;;4904301;29;20480;-43
2021/11/09 04:03:07;;;;;;;9.50;5.97;;;7.40;84.50;;;;;;4904355;29;21060;-42
2021/11/09 04:05:37;;;;;;;10.40;6.33;;;7.40;84.30;;;;;;4893743;29;20557;-41
2021/11/09 04:08:12;;;;;;;12.27;6.67;;;7.30;84.10;;;;;;4893191;29;20465;-41
2021/11/09 04:10:57;;;;;;;8.80;6.20;;;7.30;84.10;;;;;;4892879;29;20515;-40
2021/11/09 04:31:36;;;;;;;14.13;6.53;;;6.80;84.20;;;;;;4889512;29;20489;-43
2021/11/09 04:53:29;;;;;;;8.37;5.70;;;6.60;84.10;;;;;;4891761;29;20472;-43
2021/11/09 05:09:56;;;;;;;9.70;6.30;;;6.30;84.30;;;;;;4889386;29;20468;-43
2021/11/09 05:12:22;;;;;;;6.80;4.80;;;6.30;84.30;;;;;;4889877;29;20493;-43
2021/11/09 05:14:49;;;;;;;12.67;5.60;;;6.30;84.30;;;;;;4877682;29;20462;-43
2021/11/09 05:17:16;;;;;;;9.37;6.03;;;6.30;84.20;;;;;;4902575;29;20466;-43
2021/11/09 05:19:43;;;;;;;15.43;5.40;;;6.30;84.10;;;;;;4903208;29;20477;-43
2021/11/09 05:22:09;;;;;;;9.40;6.27;;;6.20;84.10;;;;;;4902563;29;20548;-43
2021/11/09 05:24:42;;;;;;;9.03;5.47;;;6.20;84.20;;;;;;4903711;29;20458;-43
2021/11/09 05:27:11;;;;;;;10.13;6.40;;;6.20;84.30;;;;;;4902833;29;20465;-43
2021/11/09 05:29:39;;;;;;;9.93;6.97;;;6.10;84.30;;;;;;4891006;29;20469;-43
2021/11/09 05:32:06;;;;;;;9.43;6.07;;;6.10;84.30;;;;;;4887577;29;21206;-44
2021/11/09 05:34:33;;;;;;;10.37;6.57;;;6.10;84.20;;;;;;4888842;29;20982;-43
2021/11/09 05:37:01;;;;;;;9.00;5.57;;;6.10;84.20;;;;;;4890975;29;20736;-43
2021/11/09 05:41:58;;;;;;;17.67;9.70;;;6.00;84.30;;;;;;4887958;29;20457;-43
2021/11/09 05:44:24;;;;;;;9.30;6.53;;;6.00;84.30;;;;;;4897218;29;20466;-42
2021/11/09 05:46:51;;;;;;;8.87;7.50;;;6.00;84.30;;;;;;4887846;29;20482;-43
2021/11/09 05:49:18;;;;;;;7.73;6.00;;;6.00;84.10;;;;;;4903956;29;20856;-43
2021/11/09 05:51:45;;;;;;;6.80;5.60;;;6.00;84.10;;;;;;4901435;29;20498;-42
2021/11/09 05:54:12;;;;;;;8.03;5.60;;;6.00;84.20;;;;;;4886473;29;20453;-42
2021/11/09 05:56:38;;;;;;;9.30;5.90;;;6.00;84.20;;;;;;4883894;29;20485;-43
2021/11/09 05:59:05;;;;;;;10.70;6.50;;;5.90;84.10;;;;;;4900224;29;20473;-43
2021/11/09 06:01:32;;;;;;;8.17;5.93;;;5.90;84.20;;;;;;4900571;29;20882;-43
2021/11/09 06:03:59;;;;;;;7.77;6.43;;;5.90;84.10;;;;;;4899143;29;20545;-42
2021/11/09 06:06:25;;;;;;;6.67;6.03;;;5.90;84.10;;;;;;4900301;29;20511;-43
2021/11/09 06:08:52;;;;;;;7.97;7.20;;;5.90;84.20;;;;;;4900870;29;21000;-43
2021/11/09 06:11:19;;;;;;;10.70;7.60;;;5.90;84.20;;;;;;4883755;29;21027;-43
2021/11/09 06:13:47;;;;;;;10.83;8.20;;;5.90;84.00;;;;;;4900816;29;20472;-43
2021/11/09 06:16:14;;;;;;;12.37;8.00;;;5.80;84.00;;;;;;4899156;29;20553;-43
2021/11/09 06:18:42;;;;;;;10.50;7.70;;;5.80;84.10;;;;;;4901415;29;20466;-43
2021/11/09 06:21:09;;;;;;;8.70;6.80;;;5.80;84.00;;;;;;4883476;29;20466;-43
2021/11/09 06:23:36;;;;;;;11.07;8.03;;;5.80;84.00;;;;;;4899399;29;20532;-43
2021/11/09 06:26:03;;;;;;;9.50;8.00;;;5.80;84.00;;;;;;4900857;29;20476;-42
2021/11/09 06:28:30;;;;;;;10.27;7.40;;;5.70;84.10;;;;;;4904499;29;20833;-43
2021/11/09 06:30:57;;;;;;;9.63;7.10;;;5.70;84.20;;;;;;4900190;29;20564;-43
2021/11/09 06:33:24;;;;;;;10.03;7.03;;;5.70;84.30;;;;;;4901136;29;20865;-43
2021/11/09 06:35:52;;;;;;;7.30;6.60;;;5.70;84.30;;;;;;4878323;29;20461;-43
2021/11/09 06:38:19;;;;;;;10.07;7.80;;;5.70;84.20;;;;;;4887586;29;20476;-43
2021/11/09 06:40:46;;;;;;;7.93;7.13;;;5.60;84.20;;;;;;4888065;29;20473;-43
2021/11/09 06:43:13;;;;;;;15.53;6.87;;;5.60;84.30;;;;;;4889121;29;20553;-43
2021/11/09 06:45:40;;;;;;;9.90;6.87;;;5.60;84.40;;;;;;4871479;29;20997;-43
2021/11/09 06:48:06;;;;;;;9.83;7.20;;;5.50;84.40;;;;;;4887520;29;20470;-43
2021/11/09 06:50:34;;;;;;;11.63;8.60;;;5.50;84.50;;;;;;4870118;29;20478;-43
2021/11/09 06:53:02;;;;;;;11.17;8.07;;;5.50;84.50;;;;;;4884100;29;20506;-43
2021/11/09 06:55:29;;;;;;;11.23;8.00;;;5.50;84.50;;;;;;4888639;29;20485;-43
2021/11/09 06:57:57;;;;;;;10.90;7.13;;;5.50;84.60;;;;;;4891598;29;20462;-42
2021/11/09 07:00:28;;;;;;;11.00;8.17;;;5.50;84.70;;;;;;4889788;29;20477;-40
2021/11/09 07:02:55;;;;;;;11.77;8.23;;;5.50;84.70;;;;;;4888385;29;20472;-41
2021/11/09 07:05:22;;;;;;;9.67;7.37;;;5.50;84.70;;;;;;4888139;29;20814;-40
2021/11/09 07:07:49;;;;;;;10.20;7.70;;;5.50;84.70;;;;;;4889391;29;20472;-40
2021/11/09 07:10:16;;;;;;;15.53;7.40;;;5.50;84.90;;;;;;4886929;29;20466;-42
2021/11/09 07:12:43;;;;;;;22.97;7.83;;;5.50;85.00;;;;;;4869816;29;20860;-40
2021/11/09 07:15:11;;;;;;;8.90;7.17;;;5.50;84.90;;;;;;4886776;29;20476;-40
2021/11/09 07:17:41;;;;;;;9.63;6.70;;;5.50;85.00;;;;;;4868768;29;20465;-41
2021/11/09 07:20:10;;;;;;;9.30;7.00;;;5.50;85.10;;;;;;4888120;29;20470;-40
2021/11/09 07:22:38;;;;;;;11.60;7.10;;;5.50;85.20;;;;;;4881770;29;20477;-40
2021/11/09 07:25:10;;;;;;;11.97;8.00;;;5.50;85.30;;;;;;4891443;29;20866;-42
2021/11/09 07:27:43;;;;;;;13.80;8.17;;;5.60;85.50;;;;;;4890018;29;20462;-41
2021/11/09 07:30:12;;;;;;;11.40;7.63;;;5.60;85.50;;;;;;4865959;29;20480;-41
2021/11/09 07:32:39;;;;;;;7.33;6.60;;;5.60;85.50;;;;;;4888159;29;20490;-41
2021/11/09 07:35:09;;;;;;;9.53;7.67;;;5.60;85.60;;;;;;4885941;29;21120;-41
2021/11/09 07:37:36;;;;;;;13.87;8.67;;;5.70;85.70;;;;;;4886298;29;20505;-40
2021/11/09 07:40:05;;;;;;;14.37;8.00;;;5.70;85.90;;;;;;4889466;29;20466;-41
2021/11/09 07:42:33;;;;;;;8.50;7.60;;;5.70;85.80;;;;;;4887472;29;20466;-41
2021/11/09 07:44:59;;;;;;;12.17;7.70;;;5.80;85.90;;;;;;4870878;29;20983;-41
2021/11/09 07:47:27;;;;;;;12.20;7.37;;;5.80;86.20;;;;;;4885009;29;20988;-41
2021/11/09 07:49:54;;;;;;;13.17;7.43;;;5.80;86.20;;;;;;4886852;29;20468;-41
2021/11/09 07:52:21;;;;;;;12.03;8.73;;;5.90;86.30;;;;;;4889902;29;20489;-41
2021/11/09 07:54:49;;;;;;;10.03;8.37;;;5.90;86.40;;;;;;4872313;29;20462;-42
2021/11/09 07:57:17;;;;;;;13.23;8.10;;;6.00;86.50;;;;;;4873449;29;20473;-41
2021/11/09 08:05:05;;;;;;;17.03;7.87;;;6.10;86.80;;;;;;4884365;29;20827;-41
2021/11/09 08:07:51;;;;;;;15.33;7.97;;;6.10;87.00;;;;;;4887662;29;21014;-41
2021/11/09 08:10:18;;;;;;;15.50;9.47;;;6.20;87.10;;;;;;4892102;29;20450;-41
2021/11/09 08:12:45;;;;;;;10.77;7.87;;;6.30;87.50;;;;;;4888172;29;20485;-41
2021/11/09 08:15:12;;;;;;;16.03;8.90;;;6.40;87.90;;;;;;4887726;29;20477;-41
2021/11/09 08:17:38;;;;;;;17.77;8.73;;;6.40;87.80;;;;;;4892473;29;20476;-41
2021/11/09 08:20:05;;;;;;;16.30;9.60;;;6.50;87.80;;;;;;4876384;29;20461;-41
2021/11/09 08:22:33;;;;;;;13.20;8.97;;;6.50;87.80;;;;;;4876584;29;20469;-41
2021/11/09 08:25:00;;;;;;;16.30;9.30;;;6.60;88.20;;;;;;4892307;29;20842;-41
2021/11/09 08:27:27;;;;;;;14.13;10.00;;;6.60;88.30;;;;;;4893449;29;20449;-41
2021/11/09 08:29:53;;;;;;;12.93;10.17;;;6.70;88.50;;;;;;4860871;29;20475;-41
2021/11/09 08:32:21;;;;;;;12.07;9.57;;;6.70;88.80;;;;;;4892153;29;20489;-41
2021/11/09 08:34:47;;;;;;;15.17;8.50;;;6.80;88.80;;;;;;4889408;29;20885;-41
2021/11/09 08:37:15;;;;;;;19.40;11.67;;;6.90;88.80;;;;;;4892296;29;20512;-41
2021/11/09 08:39:43;;;;;;;14.10;10.33;;;7.00;88.80;;;;;;4874135;29;20472;-41
2021/11/09 08:42:25;;;;;;;14.70;9.77;;;7.00;88.90;;;;;;4894818;29;20462;-43
2021/11/09 08:45:05;;;;;;;16.50;10.77;;;7.10;89.10;;;;;;4886717;29;20492;-44
2021/11/09 08:47:36;;;;;;;14.93;9.73;;;7.20;88.90;;;;;;4892355;29;20457;-44
2021/11/09 08:50:04;;;;;;;13.27;9.77;;;7.20;88.80;;;;;;4886202;29;20473;-43
2021/11/09 08:52:33;;;;;;;14.20;10.50;;;7.30;88.60;;;;;;4887570;29;20502;-44
2021/11/09 08:55:18;;;;;;;20.40;12.77;;;7.40;88.40;;;;;;4889854;29;20889;-44
2021/11/09 08:58:17;;;;;;;17.03;10.57;;;7.40;88.30;;;;;;4891877;29;20839;-44
2021/11/09 09:06:06;;;;;;;13.97;9.57;;;7.70;87.50;;;;;;4890741;29;20469;-44
2021/11/09 09:08:33;;;;;;;13.30;9.20;;;7.80;87.20;;;;;;4877255;29;20845;-44
2021/11/09 09:11:01;;;;;;;13.33;9.07;;;7.80;87.30;;;;;;4892015;29;20474;-43
2021/11/09 09:13:28;;;;;;;14.73;9.47;;;7.90;87.10;;;;;;4877417;29;20507;-43
2021/11/09 09:15:55;;;;;;;16.87;10.50;;;7.90;87.20;;;;;;4870475;29;20472;-44
2021/11/09 09:18:22;;;;;;;19.40;9.90;;;8.00;87.30;;;;;;4890409;29;20478;-44
2021/11/09 09:20:57;;;;;;;14.80;9.30;;;8.10;87.20;;;;;;4888875;29;20973;-44
2021/11/09 09:23:32;;;;;;;16.93;8.73;;;8.20;87.20;;;;;;4886334;29;20467;-44
2021/11/09 09:55:48;;;;;;;11.70;8.00;;;9.70;81.80;;;;;;4890624;29;20501;-44
2021/11/09 09:58:16;;;;;;;17.80;8.90;;;9.80;80.60;;;;;;4888964;29;20877;-44
2021/11/09 10:00:43;;;;;;;12.93;8.13;;;9.80;79.60;;;;;;4873277;29;20470;-44
2021/11/09 10:03:10;;;;;;;13.07;8.30;;;9.90;79.90;;;;;;4890308;29;20465;-44
2021/11/09 10:05:41;;;;;;;11.27;7.90;;;10.20;85.00;;;;;;4871446;29;20475;-43
2021/11/09 10:08:19;;;;;;;13.40;8.83;;;10.30;81.50;;;;;;4890162;29;20478;-44
2021/11/09 10:10:47;;;;;;;15.40;8.33;;;10.20;79.10;;;;;;4886576;29;20965;-43
2021/11/09 10:13:18;;;;;;;16.87;7.57;;;10.20;78.40;;;;;;4888401;29;20498;-44
2021/11/09 10:15:50;;;;;;;14.23;8.13;;;10.20;78.10;;;;;;4888322;29;20466;-44
2021/11/09 10:18:19;;;;;;;15.33;8.67;;;10.20;77.70;;;;;;4886200;29;20993;-44
2021/11/09 10:20:51;;;;;;;10.60;8.23;;;10.20;78.00;;;;;;4888952;29;20470;-44
2021/11/09 10:23:24;;;;;;;12.43;8.60;;;10.20;77.50;;;;;;4888602;29;20474;-44
2021/11/09 10:25:53;;;;;;;19.60;8.70;;;10.30;77.10;;;;;;4888360;29;20984;-44
2021/11/09 10:28:26;;;;;;;11.60;8.43;;;10.40;77.30;;;;;;4886218;29;20840;-44
2021/11/09 10:31:00;;;;;;;13.60;8.57;;;10.40;77.10;;;;;;4885073;29;20469;-44
2021/11/09 10:33:34;;;;;;;40.43;12.00;;;10.40;76.50;;;;;;4888276;29;20874;-45
2021/11/09 10:36:03;;;;;;;19.37;7.30;;;10.50;76.80;;;;;;4893322;29;20465;-45
2021/11/09 10:38:31;;;;;;;27.90;9.87;;;10.60;76.40;;;;;;4887576;29;20462;-45
2021/11/09 10:41:04;;;;;;;24.13;11.30;;;10.60;76.30;;;;;;4906320;29;20460;-45
2021/11/09 10:43:32;;;;;;;21.80;9.43;;;10.70;75.70;;;;;;4902750;29;20465;-46
2021/11/09 10:46:00;;;;;;;13.70;8.13;;;10.80;75.20;;;;;;4885923;29;20461;-43
2021/11/09 10:48:28;;;;;;;27.20;13.30;;;10.90;75.30;;;;;;4886560;29;20454;-43
2021/11/09 10:51:00;;;;;;;12.07;8.23;;;11.00;74.80;;;;;;4901271;29;20469;-44
2021/11/09 10:53:32;;;;;;;9.77;7.10;;;11.10;74.20;;;;;;4902478;29;20493;-43
2021/11/09 10:56:29;;;;;;;11.57;7.17;;;11.10;73.70;;;;;;4898607;29;21115;-43
2021/11/09 11:06:33;;;;;;;13.70;7.73;;;11.10;74.40;;;;;;4897553;29;20500;-43
2021/11/09 11:09:12;;;;;;;11.17;6.43;;;11.00;74.50;;;;;;4913887;29;20476;-44
2021/11/09 11:12:05;;;;;;;16.80;7.60;;;11.00;74.60;;;;;;4902449;29;20887;-43
2021/11/09 11:14:33;;;;;;;8.60;6.50;;;11.00;74.40;;;;;;4882398;29;20462;-43
2021/11/09 11:17:06;;;;;;;13.53;7.77;;;10.90;75.10;;;;;;4898867;29;20510;-43
2021/11/09 11:19:35;;;;;;;13.67;6.87;;;10.90;74.50;;;;;;4900284;29;21070;-43
2021/11/09 11:22:05;;;;;;;11.23;7.07;;;10.80;73.70;;;;;;4898261;29;20477;-43
2021/11/09 11:24:33;;;;;;;8.27;6.60;;;10.80;73.70;;;;;;4899251;29;20525;-43
2021/11/09 11:27:01;;;;;;;9.50;6.67;;;10.80;73.70;;;;;;4897347;29;20506;-44
2021/11/09 11:29:31;;;;;;;11.03;5.70;;;10.80;73.50;;;;;;4884125;29;20470;-44
2021/11/09 11:32:00;;;;;;;11.27;7.30;;;10.80;73.70;;;;;;4900447;29;20536;-44
2021/11/09 11:34:28;;;;;;;19.80;7.20;;;10.80;73.10;;;;;;4900249;29;21066;-43
2021/11/09 11:36:55;;;;;;;9.23;5.67;;;10.90;73.80;;;;;;4881413;29;20470;-43
2021/11/09 11:39:29;;;;;;;11.63;5.50;;;10.90;74.70;;;;;;4897753;29;20476;-43
2021/11/09 11:41:58;;;;;;;11.07;6.90;;;11.00;75.20;;;;;;4902293;29;20457;-43
2021/11/09 11:44:31;;;;;;;11.17;6.40;;;11.00;74.60;;;;;;4906609;29;20464;-43
2021/11/09 11:47:00;;;;;;;12.83;6.00;;;11.10;74.40;;;;;;4904185;29;20972;-43
2021/11/09 11:49:42;;;;;;;12.03;6.30;;;11.20;74.10;;;;;;4887258;29;20465;-43
2021/11/09 11:52:13;;;;;;;17.00;7.87;;;11.20;71.80;;;;;;4903817;29;20489;-43
2021/11/09 11:54:56;;;;;;;7.37;3.70;;;11.20;69.90;;;;;;4918276;29;20468;-44
2021/11/09 11:57:31;;;;;;;8.20;4.50;;;11.30;69.10;;;;;;4885901;29;20844;-43
2021/11/09 11:59:58;;;;;;;7.80;4.10;;;11.30;69.30;;;;;;4889504;29;20806;-43
2021/11/09 12:02:36;;;;;;;11.10;4.63;;;11.30;68.80;;;;;;4888816;29;20484;-44
2021/11/09 12:05:06;;;;;;;7.73;5.00;;;11.30;69.00;;;;;;4883627;29;20477;-43
2021/11/09 12:07:54;;;;;;;6.20;4.87;;;11.30;70.20;;;;;;4900623;29;20976;-43
2021/11/09 12:10:22;;;;;;;8.47;5.73;;;11.30;69.00;;;;;;4886366;29;20473;-44
2021/11/09 12:13:02;;;;;;;7.10;5.40;;;11.30;69.60;;;;;;4890603;29;21031;-44
2021/11/09 12:15:54;;;;;;;7.53;3.57;;;11.30;69.90;;;;;;4890534;29;20564;-43
2021/11/09 12:18:41;;;;;;;6.63;4.97;;;11.40;70.90;;;;;;4903834;29;20533;-43
2021/11/09 12:21:19;;;;;;;7.30;4.33;;;11.40;69.20;;;;;;4902383;29;20469;-43
2021/11/09 12:24:10;;;;;;;6.83;3.80;;;11.40;69.00;;;;;;4899517;29;20469;-43
2021/11/09 12:26:57;;;;;;;4.03;2.57;;;11.50;66.80;;;;;;4900610;29;20980;-44
2021/11/09 12:29:40;;;;;;;5.37;2.43;;;11.50;62.90;;;;;;4903345;29;20904;-43
2021/11/09 12:32:30;;;;;;;3.30;2.47;;;11.50;62.20;;;;;;4903573;29;20470;-43
2021/11/09 12:35:11;;;;;;;3.30;2.50;;;11.50;60.90;;;;;;4898096;29;20472;-43
2021/11/09 12:37:58;;;;;;;3.30;1.87;;;11.60;60.90;;;;;;4917612;29;20496;-43
2021/11/09 12:40:34;;;;;;;1.73;1.60;;;11.60;60.10;;;;;;4886085;29;20542;-44
2021/11/09 12:43:31;;;;;;;1.67;1.47;;;11.70;59.70;;;;;;4902961;29;20458;-43
2021/11/09 12:46:12;;;;;;;1.37;1.27;;;11.70;60.10;;;;;;4906420;29;20458;-43
2021/11/09 12:48:53;;;;;;;10.27;4.20;;;11.70;59.30;;;;;;4903289;29;20471;-43
2021/11/09 12:51:27;;;;;;;11.60;4.80;;;11.70;60.30;;;;;;4882863;29;20472;-43
2021/11/09 12:53:56;;;;;;;12.53;6.37;;;11.80;60.70;;;;;;4899593;29;20494;-43
2021/11/09 12:56:36;;;;;;;18.20;4.40;;;11.80;60.40;;;;;;4875397;29;20576;-43
2021/11/09 12:59:31;;;;;;;4.53;1.70;;;11.80;59.00;;;;;;4903595;29;20493;-43
2021/11/09 13:07:18;;;;;;;3.87;2.53;;;11.90;59.30;;;;;;4897856;29;20517;-43
2021/11/09 13:09:49;;;;;;;7.30;4.63;;;11.90;59.70;;;;;;4898908;29;20461;-43
2021/11/09 13:12:19;;;;;;;9.80;5.40;;;11.90;60.10;;;;;;4895582;29;20493;-43
2021/11/09 13:14:48;;;;;;;19.47;9.30;;;11.90;60.60;;;;;;4892941;29;20545;-43
2021/11/09 13:17:38;;;;;;;12.80;6.07;;;12.00;60.60;;;;;;4884280;29;20549;-43
2021/11/09 13:22:59;;;;;;;10.20;5.60;;;12.00;59.10;;;;;;4898917;29;20533;-43
2021/11/09 13:25:35;;;;;;;3.70;2.70;;;12.00;59.60;;;;;;4901266;29;20466;-43
2021/11/09 13:28:06;;;;;;;4.83;2.73;;;12.00;59.70;;;;;;4895121;29;20469;-43
2021/11/09 13:31:02;;;;;;;5.30;2.80;;;11.90;60.00;;;;;;4897977;29;20448;-43
2021/11/09 13:33:35;;;;;;;6.80;4.70;;;11.90;60.60;;;;;;4899538;29;20535;-43
2021/11/09 13:36:03;;;;;;;5.83;2.80;;;11.90;59.90;;;;;;4883594;29;20464;-43
2021/11/09 13:38:36;;;;;;;4.60;3.27;;;11.90;59.70;;;;;;4897456;29;20460;-44
2021/11/09 13:41:08;;;;;;;2.40;2.20;;;11.80;60.00;;;;;;4898510;29;20464;-43
2021/11/09 13:43:37;;;;;;;2.80;2.40;;;11.80;60.20;;;;;;4897948;29;20469;-43
2021/11/09 13:46:10;;;;;;;5.73;2.83;;;11.80;60.90;;;;;;4896643;29;20941;-43
2021/11/09 13:48:39;;;;;;;6.57;2.30;;;11.80;61.30;;;;;;4898867;29;20469;-43
2021/11/09 13:51:10;;;;;;;1.97;1.87;;;11.80;61.90;;;;;;4882855;29;20458;-43
2021/11/09 13:53:41;;;;;;;5.90;2.50;;;11.80;61.50;;;;;;4881305;29;20501;-43
2021/11/09 13:56:19;;;;;;;4.87;2.33;;;11.80;60.30;;;;;;4893485;29;21260;-43
2021/11/09 13:59:07;;;;;;;2.30;1.80;;;11.80;59.40;;;;;;4893598;29;20469;-43
2021/11/09 14:11:04;;;;;;;2.77;2.17;;;11.60;59.00;;;;;;4898370;29;20522;-43
2021/11/09 14:18:22;;;;;;;3.93;2.10;;;11.60;58.50;;;;;;4896499;29;20553;-43
2021/11/09 14:21:03;;;;;;;1.93;1.70;;;11.60;58.90;;;;;;4892429;29;20533;-43
2021/11/09 14:23:33;;;;;;;2.40;1.83;;;11.50;59.20;;;;;;4896366;29;20485;-43
2021/11/09 14:26:16;;;;;;;3.70;2.00;;;11.50;59.40;;;;;;4880347;29;20575;-43
2021/11/09 14:28:42;;;;;;;3.90;2.63;;;11.50;59.90;;;;;;4892218;29;20453;-43
2021/11/09 14:31:32;;;;;;;4.30;2.80;;;11.40;60.30;;;;;;4896954;29;20460;-43
2021/11/09 14:34:18;;;;;;;2.50;2.30;;;11.50;60.60;;;;;;4881787;29;20894;-43
2021/11/09 14:36:47;;;;;;;3.10;2.50;;;11.40;60.40;;;;;;4879261;29;20485;-43
2021/11/09 14:39:24;;;;;;;5.63;3.40;;;11.40;60.60;;;;;;4897824;29;20458;-43
2021/11/09 14:47:41;;;;;;;2.77;2.20;;;11.40;61.80;;;;;;4884288;29;20549;-43
2021/11/09 14:50:17;;;;;;;7.43;3.10;;;11.30;62.30;;;;;;4897950;29;20469;-43
2021/11/09 14:52:44;;;;;;;3.53;2.50;;;11.30;62.90;;;;;;4893247;29;20505;-44
2021/11/09 14:55:19;;;;;;;4.50;3.00;;;11.30;62.40;;;;;;4898442;29;20834;-43
2021/11/09 14:57:47;;;;;;;4.73;2.53;;;11.20;62.50;;;;;;4877947;29;20469;-44
2021/11/09 15:00:16;;;;;;;3.27;2.40;;;11.20;62.90;;;;;;4879123;29;20473;-44
2021/11/09 15:02:43;;;;;;;4.20;2.30;;;11.20;63.00;;;;;;4871832;29;20477;-44
2021/11/09 15:05:19;;;;;;;5.57;3.00;;;11.10;63.20;;;;;;4892858;29;20477;-44
2021/11/09 15:39:27;;;;;;;10.93;7.00;;;10.70;65.60;;;;;;4894361;29;20458;-44
2021/11/09 15:41:56;;;;;;;12.80;7.90;;;10.70;65.60;;;;;;4879683;29;20497;-44
2021/11/09 15:44:24;;;;;;;11.97;8.30;;;10.60;65.70;;;;;;4895163;29;20977;-44
2021/11/09 15:46:55;;;;;;;8.57;7.10;;;10.60;65.80;;;;;;4897331;29;20510;-43
2021/11/09 15:49:24;;;;;;;10.70;7.93;;;10.60;66.20;;;;;;4895807;29;20989;-45
2021/11/09 15:51:51;;;;;;;6.80;5.40;;;10.60;66.50;;;;;;4894408;29;20648;-44
2021/11/09 15:54:38;;;;;;;6.87;5.10;;;10.60;67.10;;;;;;4885962;29;20485;-44
2021/11/09 15:57:06;;;;;;;6.70;4.20;;;10.50;67.90;;;;;;4896638;29;20490;-45
2021/11/09 15:59:33;;;;;;;6.27;4.83;;;10.50;67.90;;;;;;4879381;29;20552;-44
2021/11/09 16:02:00;;;;;;;8.90;6.53;;;10.40;68.10;;;;;;4894451;29;20466;-44
2021/11/09 16:04:31;;;;;;;13.03;10.10;;;10.30;68.30;;;;;;4893270;29;20473;-44
2021/11/09 16:07:00;;;;;;;15.90;11.80;;;10.30;68.30;;;;;;4896006;29;20517;-43
2021/11/09 16:09:26;;;;;;;19.03;12.97;;;10.20;68.50;;;;;;4895124;29;20887;-44
2021/11/09 16:11:54;;;;;;;26.57;15.97;;;10.20;68.80;;;;;;4892829;29;20466;-43
2021/11/09 16:14:21;;;;;;;26.87;16.50;;;10.10;69.10;;;;;;4893011;29;20529;-43
2021/11/09 16:16:48;;;;;;;31.97;16.70;;;10.00;69.10;;;;;;4893086;29;20549;-43
2021/11/09 16:19:16;;;;;;;32.87;17.40;;;10.00;69.40;;;;;;4894768;29;20556;-44
2021/11/09 16:21:44;;;;;;;28.50;16.30;;;10.00;69.50;;;;;;4893597;29;20470;-44
2021/11/09 16:24:12;;;;;;;28.07;15.33;;;9.90;69.70;;;;;;4889350;29;21014;-44
2021/11/09 16:26:41;;;;;;;20.77;13.10;;;9.90;69.70;;;;;;4879126;29;20484;-44